Have a Safe July 4th! 

Flight Track Log - Related Links

Times and Time Zones

All times are in EDT time to prevent confusion due to time zone crossing. See the JIA2429 flight status page for this flight to view local times or setup timezone preferences in your user account.

Time Position Orientation Groundspeed Altitude Reporting Facility
EDT Latitude Longitude Course Direction KTS MPH feet Rate Location/Type
Wed 12:59:30 PM 33.4997 -81.9986 45° Northeast 240 276 4,500  Level Atlanta Center
Wed 01:00:00 PM 33.8715 -82.0710 351° North  Level FlightAware Approximate
Wed 01:00:30 PM 33.5792 -82.0142 351° North 255 293 6,700  Level Atlanta Center
Wed 01:01:00 PM 33.9992 -82.0916 354° North  Level FlightAware Approximate
Wed 01:01:30 PM 33.6589 -82.0297 351° North 272 313 9,200  Level Atlanta Center
Wed 01:02:00 PM 34.1262 -82.1162 347° North  Level FlightAware Approximate
Wed 01:02:30 PM 33.7553 -82.0500 350° North 302 348 11,900  Level Atlanta Center
Wed 01:03:00 PM 34.2500 -82.1476 90° East  Level FlightAware Approximate
Wed 01:03:30 PM 33.8411 -82.0681 350° North 308 354 14,400  Level Atlanta Center
Wed 01:04:00 PM 34.3324 -82.0327 45° Northeast  Level FlightAware Approximate
Wed 01:04:30 PM 33.9247 -82.0836 351° North 308 354 16,600  Level Atlanta Center
Wed 01:05:30 PM 34.0044 -82.1017 349° North 303 349 18,400 1,700 Climbing Atlanta Center
Wed 01:06:30 PM 34.0861 -82.1175 351° North 297 342 20,000 1,450 Climbing Atlanta Center
Wed 01:07:30 PM 34.1678 -82.1383 348° North 297 342 21,300 1,250 Climbing Atlanta Center
Wed 01:08:30 PM 34.2575 -82.1414 358° North 297 342 22,500 650 Climbing Atlanta Center
Wed 01:09:30 PM 34.3272 -82.0617 43° Northeast 299 344 22,600 -400 Climbing Atlanta Center
Wed 01:10:30 PM 34.3967 -81.9694 48° Northeast 331 381 21,700 -1,400 Descending Atlanta Center
Wed 01:11:30 PM 34.4683 -81.8819 45° Northeast 342 394 19,800 -1,900 Descending Atlanta Center
Wed 01:12:30 PM 34.5294 -81.7997 48° Northeast 341 392 17,900 -1,800 Descending Atlanta Center
Wed 01:13:30 PM 34.5967 -81.7172 45° Northeast 336 387 16,200 -1,950 Descending Atlanta Center
Wed 01:14:30 PM 34.6600 -81.6422 44° Northeast 324 373 14,000 -2,000 Descending Atlanta Center
Wed 01:15:30 PM 34.7150 -81.5725 46° Northeast 324 373 12,200 -1,000 Descending Atlanta Center
Wed 01:16:30 PM 34.7800 -81.4844 48° Northeast 330 380 12,000 -450 Descending Atlanta Center
Wed 01:17:30 PM 34.8428 -81.4042 46° Northeast 330 380 11,300 -1,328 Descending Atlanta Center
Wed 01:18:41 PM 34.9219 -81.3003 47° Northeast 315 362 9,100 -1,150 Descending Atlanta Center
Wed 01:19:30 PM 34.9625 -81.2508 45° Northeast 312 359 9,000 -55 Descending Atlanta Center
Wed 01:20:30 PM 35.0192 -81.1756 47° Northeast 300 345 9,000  Level Atlanta Center
Wed 01:21:30 PM 35.0633 -81.0953 56° Northeast 294 338 9,000  Level Atlanta Center
Wed 01:22:30 PM 35.0883 -81.0106 70° East 269 310 9,000  Level Atlanta Center
Wed 01:23:30 PM 35.1153 -80.9181 70° East 264 304 9,000  Level Atlanta Center
Wed 01:24:43 PM 35.1653 -80.8400 52° Northeast 261 300 9,000 -403 Level Atlanta Center
Wed 01:25:44 PM 35.2406 -80.8422 359° North 251 289 8,100 -1,172 Descending Atlanta Center
Wed 01:26:51 PM 35.3181 -80.8494 356° North 257 296 6,500 -1,171 Descending Atlanta Center
Wed 01:27:47 PM 35.3789 -80.8597 352° North 231 266 5,700 -974 Descending Atlanta Center
Wed 01:28:48 PM 35.4417 -80.8703 352° North 221 254 4,600 -836 Descending Atlanta Center
Wed 01:29:49 PM 35.5042 -80.8703 360° North 216 249 4,000 -295 Descending Atlanta Center
Wed 01:30:50 PM 35.5647 -80.8706 360° North 223 257 4,000  Level Atlanta Center
Wed 01:31:52 PM 35.6275 -80.8833 351° North 230 265 4,000  Level Atlanta Center
Wed 01:32:53 PM 35.6167 -80.9450 258° West 199 229 4,000  Level Atlanta Center
Wed 01:33:54 PM 35.5672 -80.9700 202° Southwest 192 221 4,000  Level Atlanta Center
Wed 01:34:55 PM 35.5150 -80.9669 177° South 180 207 4,000  Level Atlanta Center
Wed 01:35:56 PM 35.4667 -80.9583 172° South 163 188 4,000  Level Atlanta Center
Wed 01:36:58 PM 35.4189 -80.9578 179° South 168 193 4,000 -195 Level Atlanta Center
Wed 01:37:59 PM 35.3728 -80.9517 174° South 169 194 3,600 -639 Descending Atlanta Center
Wed 01:39:00 PM 35.3267 -80.9483 177° South 170 196 2,700 -836 Descending Atlanta Center
Wed 01:40:01 PM 35.2850 -80.9447 176° South 134 154 1,900 -732 Descending Atlanta Center
Wed 01:41:03 PM 35.2453 -80.9411 176° South 133 153 1,200 -677 Descending Atlanta Center

Login

Don't have an account? Register now (free) for customized features, flight alerts, and more!